createdAt,value
2018-06-08T00:02:13.833Z,14.40
2018-06-08T00:04:42.068Z,14.50
2018-06-08T00:07:10.280Z,14.50
2018-06-08T00:09:38.503Z,14.50
2018-06-08T00:12:06.724Z,14.50
2018-06-08T00:14:34.956Z,14.40
2018-06-08T00:17:03.159Z,14.30
2018-06-08T00:19:31.404Z,14.30
2018-06-08T00:21:59.619Z,14.20
2018-06-08T00:24:27.836Z,14.20
2018-06-08T00:26:56.090Z,14.30
2018-06-08T00:29:24.311Z,14.30
2018-06-08T00:31:52.532Z,14.20
2018-06-08T00:34:20.760Z,14.10
2018-06-08T00:36:48.990Z,14.00
2018-06-08T00:39:17.187Z,13.90
2018-06-08T00:41:45.409Z,14.00
2018-06-08T00:46:41.639Z,13.90
2018-06-08T00:49:09.860Z,13.80
2018-06-08T00:51:38.106Z,13.80
2018-06-08T00:54:06.308Z,13.70
2018-06-08T00:56:45.825Z,13.70
2018-06-08T00:59:14.022Z,13.60
2018-06-08T01:01:42.266Z,13.50
2018-06-08T01:04:10.473Z,13.40
2018-06-08T01:06:38.714Z,13.40
2018-06-08T01:16:32.055Z,13.40
2018-06-08T01:19:00.275Z,13.30
2018-06-08T01:21:28.479Z,13.30
2018-06-08T01:23:56.721Z,13.20
2018-06-08T01:26:24.992Z,13.20
2018-06-08T01:28:53.209Z,13.10
2018-06-08T01:31:21.407Z,13.10
2018-06-08T01:33:49.650Z,13.10
2018-06-08T01:36:17.868Z,13.00
2018-06-08T01:38:46.088Z,13.00
2018-06-08T01:41:14.291Z,13.00
2018-06-08T01:43:42.478Z,13.00
2018-06-08T01:46:10.688Z,13.00
2018-06-08T01:48:38.915Z,12.90
2018-06-08T01:51:07.127Z,12.80
2018-06-08T01:56:03.309Z,12.70
2018-06-08T01:58:31.556Z,12.70
2018-06-08T02:00:59.850Z,12.70
2018-06-08T02:03:28.147Z,12.70
2018-06-08T02:05:56.372Z,12.60
2018-06-08T02:08:24.581Z,12.60
2018-06-08T02:10:52.812Z,12.60
2018-06-08T02:13:21.025Z,12.50
2018-06-08T02:15:49.258Z,12.40
2018-06-08T02:18:17.461Z,12.40
2018-06-08T02:20:45.671Z,12.40
2018-06-08T02:23:13.867Z,12.30
2018-06-08T02:28:10.066Z,12.20
2018-06-08T02:30:38.260Z,12.20
2018-06-08T02:33:06.709Z,12.20
2018-06-08T02:35:34.927Z,12.10
2018-06-08T02:38:03.165Z,12.10
2018-06-08T02:40:31.374Z,12.10
2018-06-08T02:42:59.608Z,12.00
2018-06-08T02:45:27.822Z,12.00
2018-06-08T02:47:56.034Z,12.00
2018-06-08T02:50:24.246Z,12.00
2018-06-08T02:52:52.451Z,12.00
2018-06-08T02:55:20.658Z,12.00
2018-06-08T02:57:48.904Z,11.90
2018-06-08T03:00:17.374Z,11.90
2018-06-08T03:02:45.601Z,12.00
2018-06-08T03:05:13.794Z,12.00
2018-06-08T03:07:42.054Z,12.00
2018-06-08T03:10:10.267Z,12.00
2018-06-08T03:12:38.474Z,11.90
2018-06-08T03:15:06.853Z,11.90
2018-06-08T03:17:35.062Z,11.90
2018-06-08T03:20:03.286Z,12.00
2018-06-08T03:22:31.520Z,11.90
2018-06-08T03:24:59.769Z,11.90
2018-06-08T03:27:27.955Z,11.90
2018-06-08T03:29:56.183Z,11.90
2018-06-08T03:32:24.385Z,11.90
2018-06-08T03:34:52.621Z,11.90
2018-06-08T03:37:20.827Z,12.00
2018-06-08T03:39:49.029Z,12.00
2018-06-08T03:42:17.255Z,12.00
2018-06-08T03:44:45.458Z,12.00
2018-06-08T03:47:13.675Z,12.10
2018-06-08T03:49:41.900Z,12.10
2018-06-08T03:52:10.382Z,12.10
2018-06-08T03:54:38.575Z,12.10
2018-06-08T03:57:06.789Z,12.20
2018-06-08T03:59:34.979Z,12.20
2018-06-08T04:02:03.265Z,12.30
2018-06-08T04:04:31.469Z,12.30
2018-06-08T04:06:59.697Z,12.30
2018-06-08T04:09:27.911Z,12.40
2018-06-08T04:11:56.164Z,12.50
2018-06-08T04:14:24.419Z,12.70
2018-06-08T04:16:52.639Z,12.90
2018-06-08T04:19:20.923Z,13.00
2018-06-08T04:21:49.147Z,13.10
2018-06-08T04:24:17.365Z,13.10
2018-06-08T04:26:45.621Z,13.20
2018-06-08T04:29:13.839Z,13.50
2018-06-08T04:31:42.058Z,13.60
2018-06-08T04:34:10.280Z,13.90
2018-06-08T04:36:38.490Z,14.70
2018-06-08T04:39:08.010Z,16.40
2018-06-08T04:41:36.244Z,17.60
2018-06-08T04:46:32.449Z,18.10
2018-06-08T04:49:00.664Z,17.70
2018-06-08T04:51:28.885Z,17.20
2018-06-08T04:53:57.119Z,16.70
2018-06-08T04:56:25.315Z,16.40
2018-06-08T04:58:53.544Z,16.10
2018-06-08T05:01:21.812Z,15.80
2018-06-08T05:03:50.018Z,15.50
2018-06-08T05:06:18.227Z,15.50
2018-06-08T05:08:46.465Z,15.40
2018-06-08T05:11:14.664Z,15.40
2018-06-08T05:13:42.869Z,15.40
2018-06-08T05:16:13.196Z,15.40
2018-06-08T05:18:41.490Z,15.50
2018-06-08T05:21:09.713Z,15.60
2018-06-08T05:23:37.943Z,15.60
2018-06-08T05:26:06.175Z,15.70
2018-06-08T05:28:34.384Z,15.70
2018-06-08T05:31:02.623Z,15.70
2018-06-08T05:33:30.839Z,15.80
2018-06-08T05:35:59.097Z,15.90
2018-06-08T05:38:27.316Z,16.10
2018-06-08T05:40:55.541Z,16.20
2018-06-08T05:43:23.760Z,16.30
2018-06-08T05:45:52.011Z,16.40
2018-06-08T05:48:20.290Z,16.50
2018-06-08T05:50:48.443Z,16.60
2018-06-08T05:53:16.717Z,16.70
2018-06-08T05:55:44.960Z,16.80
2018-06-08T05:58:13.171Z,17.30
2018-06-08T06:00:41.394Z,17.60
2018-06-08T06:03:09.612Z,17.60
2018-06-08T06:05:37.874Z,17.60
2018-06-08T06:08:06.252Z,17.70
2018-06-08T06:10:34.481Z,18.30
2018-06-08T06:13:02.712Z,18.70
2018-06-08T06:15:30.911Z,18.90
2018-06-08T06:17:59.157Z,18.90
2018-06-08T06:20:27.377Z,18.90
2018-06-08T06:22:55.831Z,18.90
2018-06-08T06:25:24.026Z,18.90
2018-06-08T06:27:52.275Z,18.80
2018-06-08T06:30:20.468Z,18.80
2018-06-08T06:32:48.671Z,18.90
2018-06-08T06:35:16.893Z,19.00
2018-06-08T06:37:45.084Z,19.00
2018-06-08T06:40:13.300Z,19.10
2018-06-08T06:42:41.517Z,19.20
2018-06-08T06:47:37.725Z,19.40
2018-06-08T06:50:05.996Z,19.70
2018-06-08T06:52:34.197Z,19.90
2018-06-08T06:55:02.415Z,20.20
2018-06-08T06:57:30.612Z,20.60
2018-06-08T06:59:58.819Z,21.00
2018-06-08T07:02:27.063Z,21.10
2018-06-08T07:04:55.303Z,21.40
2018-06-08T07:07:23.495Z,21.80
2018-06-08T07:09:51.704Z,22.20
2018-06-08T07:12:19.949Z,22.40
2018-06-08T07:14:48.157Z,22.60
2018-06-08T07:17:16.376Z,22.90
2018-06-08T07:19:44.593Z,23.20
2018-06-08T07:22:12.880Z,23.50
2018-06-08T07:24:41.083Z,23.90
2018-06-08T07:27:09.312Z,24.40
2018-06-08T07:29:37.516Z,25.50
2018-06-08T07:32:05.795Z,27.90
2018-06-08T07:34:33.985Z,31.30
2018-06-08T07:37:02.221Z,34.70
2018-06-08T07:39:30.435Z,37.80
2018-06-08T07:41:58.714Z,39.30
2018-06-08T07:44:26.922Z,40.90
2018-06-08T07:46:55.195Z,42.10
2018-06-08T07:49:23.395Z,42.70
2018-06-08T07:51:51.639Z,43.90
2018-06-08T07:54:19.897Z,44.70
2018-06-08T07:56:48.148Z,44.70
2018-06-08T07:59:16.415Z,45.10
2018-06-08T08:01:44.624Z,44.50
2018-06-08T08:04:12.924Z,45.00
2018-06-08T08:06:41.079Z,45.30
2018-06-08T08:09:10.073Z,45.30
2018-06-08T08:11:38.260Z,44.70
2018-06-08T08:14:06.496Z,44.00
2018-06-08T08:16:34.749Z,43.70
2018-06-08T08:19:02.997Z,43.30
2018-06-08T08:21:31.377Z,43.60
2018-06-08T08:23:59.709Z,42.90
2018-06-08T08:26:27.951Z,43.20
2018-06-08T08:28:56.209Z,43.30
2018-06-08T08:31:24.494Z,43.40
2018-06-08T08:33:52.704Z,43.40
2018-06-08T08:36:20.968Z,43.70
2018-06-08T08:38:49.208Z,43.80
2018-06-08T08:41:17.429Z,43.70
2018-06-08T08:43:45.656Z,43.70
2018-06-08T08:46:13.901Z,44.60
2018-06-08T08:48:42.155Z,45.00
2018-06-08T08:51:10.395Z,45.20
2018-06-08T08:53:38.980Z,45.40
2018-06-08T08:56:07.198Z,45.40
2018-06-08T08:58:35.467Z,46.00
2018-06-08T09:01:03.738Z,46.10
2018-06-08T09:03:31.952Z,46.30
2018-06-08T09:06:00.177Z,45.00
2018-06-08T09:08:28.428Z,44.90
2018-06-08T09:10:56.664Z,44.60
2018-06-08T09:13:24.907Z,43.90
2018-06-08T09:15:53.169Z,44.30
2018-06-08T09:18:21.411Z,44.20
2018-06-08T09:20:49.612Z,44.90
2018-06-08T09:23:17.880Z,44.80
2018-06-08T09:25:46.112Z,44.90
2018-06-08T09:28:14.473Z,44.70
2018-06-08T09:30:42.704Z,43.90
2018-06-08T09:33:10.990Z,44.20
2018-06-08T09:35:39.243Z,44.20
2018-06-08T09:38:07.459Z,44.80
2018-06-08T09:40:35.732Z,45.00
2018-06-08T09:43:03.952Z,45.00
2018-06-08T09:45:32.197Z,45.00
2018-06-08T09:48:00.455Z,44.60
2018-06-08T09:50:28.714Z,43.70
2018-06-08T09:52:56.963Z,43.30
2018-06-08T09:55:25.177Z,43.00
2018-06-08T09:58:00.029Z,42.90
2018-06-08T10:00:45.643Z,43.10
2018-06-08T10:03:13.864Z,43.40
2018-06-08T10:05:42.129Z,43.50
2018-06-08T10:08:10.383Z,43.30
2018-06-08T10:10:38.666Z,42.50
2018-06-08T10:13:06.916Z,41.30
2018-06-08T10:15:35.164Z,41.50
2018-06-08T10:18:03.398Z,41.50
2018-06-08T10:20:31.627Z,40.70
2018-06-08T10:22:59.937Z,39.00
2018-06-08T10:25:28.158Z,37.10
2018-06-08T10:27:56.460Z,35.70
2018-06-08T10:30:24.760Z,34.90
2018-06-08T10:32:53.032Z,34.50
2018-06-08T10:35:21.314Z,34.00
2018-06-08T10:37:49.527Z,33.90
2018-06-08T10:40:17.775Z,33.80
2018-06-08T10:42:45.995Z,33.70
2018-06-08T10:45:14.225Z,33.70
2018-06-08T10:47:42.532Z,33.70
2018-06-08T10:50:10.763Z,33.80
2018-06-08T10:52:38.991Z,33.90
2018-06-08T10:55:07.232Z,34.10
2018-06-08T10:57:35.774Z,34.30
2018-06-08T11:00:04.097Z,34.30
2018-06-08T11:02:32.360Z,34.20
2018-06-08T11:05:00.596Z,34.10
2018-06-08T11:09:56.884Z,34.30
2018-06-08T11:12:25.115Z,34.40
2018-06-08T11:14:53.396Z,34.20
2018-06-08T11:17:21.838Z,34.30
2018-06-08T11:19:50.133Z,34.20
2018-06-08T11:22:18.336Z,34.00
2018-06-08T11:24:46.561Z,34.10
2018-06-08T11:27:15.603Z,34.10
2018-06-08T11:29:44.259Z,34.20
2018-06-08T11:32:12.513Z,34.30
2018-06-08T11:34:40.724Z,34.50
2018-06-08T11:37:09.290Z,34.50
2018-06-08T11:39:37.483Z,34.60
2018-06-08T11:42:05.709Z,34.50
2018-06-08T11:44:33.939Z,34.40
2018-06-08T11:47:03.752Z,34.40
2018-06-08T11:49:31.962Z,34.40
2018-06-08T11:52:00.217Z,34.40
2018-06-08T11:54:28.447Z,34.30
2018-06-08T11:59:24.691Z,34.50
2018-06-08T12:01:53.028Z,34.40
2018-06-08T12:04:21.196Z,34.30
2018-06-08T12:06:50.267Z,34.30
2018-06-08T12:09:18.552Z,34.30
2018-06-08T12:11:46.809Z,34.40
2018-06-08T12:14:15.068Z,34.30
2018-06-08T12:16:43.375Z,34.30
2018-06-08T12:19:11.615Z,34.20
2018-06-08T12:21:39.866Z,34.10
2018-06-08T12:24:08.117Z,33.90
2018-06-08T12:26:36.344Z,33.80
2018-06-08T12:29:04.595Z,33.70
2018-06-08T12:31:32.821Z,33.70
2018-06-08T12:34:01.084Z,33.90
2018-06-08T12:36:29.309Z,33.90
2018-06-08T12:38:57.537Z,34.00
2018-06-08T12:41:25.757Z,34.10
2018-06-08T12:43:54.054Z,34.00
2018-06-08T12:46:22.269Z,34.00
2018-06-08T12:48:50.518Z,34.00
2018-06-08T12:51:18.759Z,33.80
2018-06-08T12:53:46.989Z,33.80
2018-06-08T12:56:15.395Z,33.70
2018-06-08T12:58:43.614Z,33.50
2018-06-08T13:01:11.876Z,33.50
2018-06-08T13:06:08.120Z,33.50
2018-06-08T13:08:36.867Z,33.50
2018-06-08T13:11:05.143Z,33.50
2018-06-08T13:13:33.365Z,33.50
2018-06-08T13:16:01.690Z,33.40
2018-06-08T13:18:29.949Z,33.50
2018-06-08T13:20:58.221Z,33.40
2018-06-08T13:23:26.467Z,33.30
2018-06-08T13:25:54.704Z,33.30
2018-06-08T13:28:22.937Z,33.30
2018-06-08T13:30:51.285Z,33.30
2018-06-08T13:33:19.505Z,33.30
2018-06-08T13:35:47.781Z,33.30
2018-06-08T13:38:16.059Z,33.40
2018-06-08T13:40:44.289Z,33.40
2018-06-08T13:43:12.555Z,33.40
2018-06-08T13:45:40.809Z,33.40
2018-06-08T13:48:09.028Z,33.40
2018-06-08T13:50:39.540Z,33.30
2018-06-08T13:53:07.783Z,33.20
2018-06-08T13:55:36.000Z,33.20
2018-06-08T13:58:05.670Z,33.20
2018-06-08T14:00:33.927Z,33.20
2018-06-08T14:03:02.165Z,33.20
2018-06-08T14:07:58.459Z,33.20
2018-06-08T14:10:26.668Z,33.30
2018-06-08T14:12:54.892Z,33.30
2018-06-08T14:15:23.103Z,33.30
2018-06-08T14:17:51.371Z,33.30
2018-06-08T14:20:19.581Z,33.20
2018-06-08T14:22:47.897Z,33.20
2018-06-08T14:25:16.128Z,33.20
2018-06-08T14:27:44.359Z,33.20
2018-06-08T14:30:12.638Z,33.20
2018-06-08T14:32:40.871Z,33.20
2018-06-08T14:35:09.118Z,33.20
2018-06-08T14:37:37.322Z,33.10
2018-06-08T14:40:05.591Z,33.00
2018-06-08T14:42:33.918Z,33.00
2018-06-08T14:45:02.148Z,32.90
2018-06-08T14:47:30.399Z,32.70
2018-06-08T14:49:58.662Z,32.60
2018-06-08T14:52:33.632Z,32.60
2018-06-08T14:55:01.900Z,32.50
2018-06-08T14:57:30.134Z,32.40
2018-06-08T14:59:58.359Z,32.40
2018-06-08T15:02:26.601Z,32.40
2018-06-08T15:04:54.840Z,32.30
2018-06-08T15:07:23.053Z,32.30
2018-06-08T15:09:51.324Z,32.10
2018-06-08T15:12:19.540Z,32.00
2018-06-08T15:14:48.025Z,32.00
2018-06-08T15:17:16.269Z,31.90
2018-06-08T15:19:44.549Z,31.80
2018-06-08T15:22:12.839Z,31.80
2018-06-08T15:24:41.072Z,31.80
2018-06-08T15:27:09.326Z,31.90
2018-06-08T15:29:37.575Z,31.90
2018-06-08T15:32:05.897Z,31.90
2018-06-08T15:34:34.238Z,31.90
2018-06-08T15:37:03.756Z,31.90
2018-06-08T15:39:31.988Z,31.80
2018-06-08T15:42:00.224Z,31.90
2018-06-08T15:44:28.440Z,31.90
2018-06-08T15:46:56.677Z,31.90
2018-06-08T15:49:24.920Z,31.90
2018-06-08T15:51:54.323Z,31.80
2018-06-08T15:54:22.531Z,31.80
2018-06-08T15:56:50.789Z,31.70
2018-06-08T15:59:19.013Z,31.70
2018-06-08T16:01:47.251Z,31.70
2018-06-08T16:04:15.612Z,31.50
2018-06-08T16:06:43.834Z,31.50
2018-06-08T16:09:12.095Z,31.50
2018-06-08T16:11:40.327Z,31.50
2018-06-08T16:16:36.588Z,31.40
2018-06-08T16:19:04.863Z,31.30
2018-06-08T16:24:01.076Z,31.00
2018-06-08T16:26:35.595Z,30.90
2018-06-08T16:29:03.831Z,30.90
2018-06-08T16:31:32.085Z,30.80
2018-06-08T16:34:00.320Z,30.80
2018-06-08T16:36:28.542Z,30.70
2018-06-08T16:38:56.781Z,30.70
2018-06-08T16:43:53.008Z,30.60
2018-06-08T16:46:21.247Z,30.60
2018-06-08T16:48:49.497Z,30.50
2018-06-08T16:51:17.732Z,30.40
2018-06-08T16:53:46.009Z,30.30
2018-06-08T16:56:14.265Z,30.20
2018-06-08T16:58:42.496Z,30.10
2018-06-08T17:01:10.765Z,29.90
2018-06-08T17:03:38.990Z,29.80
2018-06-08T17:06:07.265Z,29.70
2018-06-08T17:08:35.480Z,29.70
2018-06-08T17:11:03.705Z,29.60
2018-06-08T17:13:31.928Z,29.50
2018-06-08T17:18:28.167Z,29.20
2018-06-08T17:20:56.399Z,29.00
2018-06-08T17:23:24.664Z,28.90
2018-06-08T17:25:52.902Z,28.70
2018-06-08T17:28:21.124Z,28.60
2018-06-08T17:30:49.369Z,28.60
2018-06-08T17:33:17.575Z,28.40
2018-06-08T17:35:45.838Z,28.40
2018-06-08T17:38:14.075Z,28.30
2018-06-08T17:40:42.332Z,28.10
2018-06-08T17:43:10.968Z,28.00
2018-06-08T17:45:39.199Z,27.90
2018-06-08T17:48:07.455Z,27.80
2018-06-08T17:50:35.712Z,27.70
2018-06-08T17:53:03.916Z,27.50
2018-06-08T17:55:32.160Z,27.40
2018-06-08T17:58:00.382Z,27.30
2018-06-08T18:00:28.680Z,27.20
2018-06-08T18:02:56.927Z,27.00
2018-06-08T18:05:25.188Z,27.00
2018-06-08T18:07:53.448Z,26.80
2018-06-08T18:10:21.724Z,26.70
2018-06-08T18:12:49.924Z,26.60
2018-06-08T18:15:18.145Z,26.50
2018-06-08T18:17:46.410Z,26.40
2018-06-08T18:20:14.639Z,26.30
2018-06-08T18:22:42.925Z,26.20
2018-06-08T18:25:11.155Z,26.10
2018-06-08T18:27:39.388Z,26.00
2018-06-08T18:30:07.583Z,26.00
2018-06-08T18:35:03.899Z,25.80
2018-06-08T18:40:00.143Z,25.60
2018-06-08T18:42:28.386Z,25.60
2018-06-08T18:44:56.616Z,25.50
2018-06-08T18:47:24.867Z,25.40
2018-06-08T18:49:53.165Z,25.30
2018-06-08T18:52:21.424Z,25.10
2018-06-08T18:54:49.750Z,25.00
2018-06-08T18:57:18.104Z,24.80
2018-06-08T18:59:46.375Z,24.70
2018-06-08T19:02:14.874Z,24.60
2018-06-08T19:04:43.210Z,24.50
2018-06-08T19:07:11.462Z,24.40
2018-06-08T19:12:07.707Z,24.10
2018-06-08T19:14:35.956Z,24.00
2018-06-08T19:17:04.228Z,23.80
2018-06-08T19:19:32.520Z,23.80
2018-06-08T19:22:00.814Z,23.60
2018-06-08T19:24:29.071Z,23.50
2018-06-08T19:26:57.302Z,23.30
2018-06-08T19:29:25.570Z,23.20
2018-06-08T19:31:53.856Z,23.10
2018-06-08T19:34:22.122Z,23.00
2018-06-08T19:36:50.360Z,22.90
2018-06-08T19:39:18.613Z,22.90
2018-06-08T19:41:46.935Z,22.80
2018-06-08T19:44:15.195Z,22.70
2018-06-08T19:46:43.448Z,22.70
2018-06-08T19:49:11.811Z,22.60
2018-06-08T19:51:40.051Z,22.50
2018-06-08T19:54:08.575Z,22.40
2018-06-08T19:56:36.881Z,22.30
2018-06-08T19:59:06.556Z,22.20
2018-06-08T20:01:35.090Z,22.10
2018-06-08T20:04:03.391Z,22.00
2018-06-08T20:06:31.712Z,22.00
2018-06-08T20:08:59.925Z,22.00
2018-06-08T20:11:29.248Z,22.10
2018-06-08T20:13:57.570Z,22.10
2018-06-08T20:16:26.228Z,22.00
2018-06-08T20:18:54.849Z,21.90
2018-06-08T20:21:23.284Z,21.80
2018-06-08T20:23:51.816Z,21.70
2018-06-08T20:26:20.537Z,21.70
2018-06-08T20:28:49.058Z,21.60
2018-06-08T20:31:17.642Z,21.60
2018-06-08T20:33:46.080Z,21.50
2018-06-08T20:36:14.335Z,21.50
2018-06-08T20:38:42.573Z,21.40
2018-06-08T20:41:10.774Z,21.30
2018-06-08T20:43:39.016Z,21.30
2018-06-08T20:46:07.302Z,21.20
2018-06-08T20:48:35.548Z,21.20
2018-06-08T20:51:03.757Z,21.10
2018-06-08T20:53:36.267Z,21.10
2018-06-08T20:56:04.579Z,20.90
2018-06-08T20:58:32.799Z,20.90
2018-06-08T21:01:01.041Z,20.90
2018-06-08T21:03:29.280Z,20.80
2018-06-08T21:05:57.484Z,20.70
2018-06-08T21:08:25.720Z,20.70
2018-06-08T21:10:53.915Z,20.70
2018-06-08T21:13:22.138Z,20.60
2018-06-08T21:15:50.332Z,20.60
2018-06-08T21:18:18.573Z,20.50
2018-06-08T21:20:46.787Z,20.50
2018-06-08T21:23:15.051Z,20.40
2018-06-08T21:25:43.279Z,20.40
2018-06-08T21:28:11.476Z,20.40
2018-06-08T21:30:39.678Z,20.40
2018-06-08T21:33:07.879Z,20.30
2018-06-08T21:35:36.100Z,20.20
2018-06-08T21:38:04.506Z,20.20
2018-06-08T21:40:32.746Z,20.10
2018-06-08T21:43:01.012Z,20.00
2018-06-08T21:45:29.238Z,20.00
2018-06-08T21:47:57.467Z,19.90
2018-06-08T21:50:25.692Z,19.90
2018-06-08T21:52:53.888Z,19.90
2018-06-08T21:55:22.149Z,19.80
2018-06-08T21:57:50.340Z,19.80
2018-06-08T22:00:18.539Z,19.70
2018-06-08T22:02:46.751Z,19.70
2018-06-08T22:05:14.965Z,19.60
2018-06-08T22:10:11.176Z,19.60
2018-06-08T22:12:39.391Z,19.50
2018-06-08T22:15:07.596Z,19.50
2018-06-08T22:17:35.814Z,19.50
2018-06-08T22:20:04.093Z,19.50
2018-06-08T22:22:34.615Z,19.60
2018-06-08T22:25:02.818Z,19.70
2018-06-08T22:27:31.019Z,19.60
2018-06-08T22:29:59.236Z,19.60
2018-06-08T22:32:27.489Z,19.60
2018-06-08T22:34:55.679Z,19.50
2018-06-08T22:37:24.707Z,19.50
2018-06-08T22:39:52.908Z,19.50
2018-06-08T22:42:21.142Z,19.40
2018-06-08T22:44:49.340Z,19.20
2018-06-08T22:47:17.570Z,19.20
2018-06-08T22:49:45.781Z,19.10
2018-06-08T22:52:13.990Z,19.00
2018-06-08T22:54:42.627Z,19.00
2018-06-08T22:57:10.818Z,18.90
2018-06-08T22:59:39.040Z,18.80
2018-06-08T23:02:09.211Z,18.90
2018-06-08T23:04:37.431Z,18.90
2018-06-08T23:07:05.629Z,18.90
2018-06-08T23:12:01.863Z,18.90
2018-06-08T23:14:30.095Z,18.90
2018-06-08T23:16:58.311Z,18.80
2018-06-08T23:19:26.534Z,18.70
2018-06-08T23:21:54.735Z,18.60
2018-06-08T23:24:22.946Z,18.50
2018-06-08T23:26:51.159Z,18.50
2018-06-08T23:29:19.428Z,18.60
2018-06-08T23:31:47.676Z,18.60
2018-06-08T23:34:15.899Z,18.50
2018-06-08T23:36:44.111Z,18.60
2018-06-08T23:39:12.407Z,18.50
2018-06-08T23:41:40.607Z,18.50
2018-06-08T23:44:08.864Z,18.40
2018-06-08T23:46:37.072Z,18.40
2018-06-08T23:49:05.291Z,18.40
2018-06-08T23:51:33.496Z,18.40
2018-06-08T23:54:01.723Z,18.30
2018-06-08T23:56:29.919Z,18.30
2018-06-08T23:58:58.157Z,18.20
